LA HONDA (LAH)

Elevation: 425' · SAN GREGORIO CR basin · Operator: CAL FIRE

Query executed Sunday at 9:08:37   clock

Provisional data, subject to change.
Select a sensor type for a plot of data.

Earlier

Date   /   Time   RAIN     TEMP     REL HUM     FUEL MS     FUEL TP     WIND SP     WIND DR     PEAK WS     PEAK WD     SOLAR R     BAT VOL    
(PST)INCHES   DEG F   %   %   DEG F   MPH   DEG   MPH   DEG   W/M^2   VOLTS  
02/06/2016 09:00 20.92 56 47 22 53 1 205 5 100 207.00 13.9
02/06/2016 10:00 20.92 61 55 16 69 3 290 10 24 365.00 13.8
02/06/2016 11:00 20.92 63 47 13 70 8 23 14 27 494.00 13.9
02/06/2016 12:00 20.92 68 31 10 78 5 11 11 24 571.00 13.7
02/06/2016 13:00 20.92 67 28 10 67 8 34 13 38 570.00 14.0
02/06/2016 14:00 20.92 67 30 9 67 8 29 14 20 577.00 14.1
02/06/2016 15:00 20.92 66 25 8 68 8 359 12 27 432.00 13.9
02/06/2016 16:00 20.92 64 40 9 65 7 2 14 28 226.00 14.4
02/06/2016 17:00 20.92 61 41 8 59 7 4 12 8 127.00 14.3
02/06/2016 18:00 20.92 58 57 9 55 4 26 12 17 8.00 13.4
02/06/2016 19:00 20.92 58 52 10 54 5 50 11 70 0.00 13.2
02/06/2016 20:00 20.92 58 56 10 53 6 4 10 10 0.00 13.2
02/06/2016 21:00 20.92 56 52 10 51 3 24 8 15 0.00 13.1
02/06/2016 22:00 20.92 54 57 11 48 3 70 7 38 0.00 13.1
02/06/2016 23:00 20.92 58 51 11 54 6 14 11 343 0.00 13.0
02/07/2016 00:00 20.92 56 58 11 51 4 312 9 39 0.00 13.0
02/07/2016 01:00 20.92 55 61 12 49 2 284 7 316 0.00 13.0
02/07/2016 02:00 20.92 56 45 12 51 4 275 6 203 0.00 13.0
02/07/2016 03:00 20.92 60 33 11 54 4 325 14 9 0.00 13.0
02/07/2016 04:00 20.92 57 37 10 50 2 252 8 278 0.00 13.0
02/07/2016 05:00 20.92 58 41 10 52 3 119 9 7 0.00 12.9
02/07/2016 06:00 20.92 54 50 10 48 2 84 6 142 0.00 12.9
02/07/2016 07:00 20.92 52 57 11 47 4 96 7 40 1.00 12.9
02/07/2016 08:00 20.92 60 49 12 57 6 4 18 73 42.00 13.2
02/07/2016 09:00 -- -- -- -- -- -- -- -- -- -- --

Later | Latest

Warning! This data is preliminary and subject to revision.

Show LAH Map | 24 Hours LAH Data | Plot all LAH Sensors | Daily LAH Data | LAH Info